Latest Coastal Weather Observations for Montague Island

IDN60701

Issued at 5:21 pm EDT Monday 18 November 2019 (issued every 10 minutes, with the page automatically refreshed every 10 minutes)

About coastal observations | Map of coastal stations | Coastal observations for NSW | Marine services | Other Formats
Station Details ID: 069017 Name: MONTAGUE ISLAND LIGHTHOUSE Lat: -36.25 Lon: 150.23 Height: 52.0 m
Data from the previous 72 hours. | See also: Recent months at Montague Island
Date/Time
EDT
Wind Sea
Height
m
Swell Vis
km
Cloud Weather Temp
°C
Press
hPa
Rain since
9am
mm
Dir  Spd
kts
Gust
kts
Height
m
Period
s
Dir
18/05:00pm NNE 10 12 - - - - - - - 20.1 1011.0 0.0
18/04:30pm NNE 10 12 - - - - - - - 20.3 1011.1 0.0
18/04:00pm NNE 10 12 - - - - - - - 20.5 1011.1 0.0
18/03:30pm NNE 11 15 - - - - - - - 20.6 1011.3 0.0
18/03:00pm NE 11 15 - - - - - - - 20.8 1011.5 0.0
18/02:30pm NE 13 16 - - - - - - - 20.6 1012.0 0.0
18/02:00pm NE 15 20 - - - - - - - 19.9 1012.1 0.0
18/01:30pm NE 17 21 - - - - - - - 19.7 1012.4 0.0
18/01:00pm NE 15 20 - - - - - - - 19.8 1013.0 0.0
18/12:30pm NNE 16 20 - - - - - - - 19.3 1013.6 0.0
18/12:00pm NNE 17 20 - - - - - - - 19.1 1014.0 0.0
18/11:30am NNE 16 20 - - - - - - - 19.0 1014.7 0.0
18/11:00am NNE 17 20 - - - - - - - 18.5 1015.2 0.0
18/10:30am N 18 22 - - - - - - - 18.1 1015.7 0.0
18/10:00am N 17 22 - - - - - - - 17.6 1016.0 0.0
18/09:30am N 17 24 - - - - - - - 17.5 1016.4 0.0
18/09:00am N 16 22 - - - - - - - 16.9 1016.6 2.0
18/08:30am N 14 21 - - - - - - - 16.5 1016.8 2.0
18/08:00am N 16 22 - - - - - - - 16.1 1016.8 2.0
18/07:30am N 16 21 - - - - - - - 15.8 1016.8 2.0
18/07:00am N 13 17 - - - - - - - 15.2 1016.9 2.0
18/06:30am N 14 17 - - - - - - - 14.8 1017.0 2.0
18/06:00am N 13 16 - - - - - - - 14.4 1017.0 2.0
18/05:30am N 13 16 - - - - - - - 14.3 1017.0 2.0
18/05:00am N 14 17 - - - - - - - 14.4 1016.9 2.0
18/04:30am NNW 11 15 - - - - - - - 14.1 1017.1 2.0
18/04:00am NNW 9 12 - - - - - - - 14.2 1017.9 2.0
18/03:30am NNW 9 12 - - - - - - - 13.9 1018.0 2.0
18/03:00am NW 6 9 - - - - - - - 13.9 1018.6 2.0
18/02:30am NW 7 9 - - - - - - - 13.7 1018.7 2.0
18/02:00am NNW 5 8 - - - - - - - 13.6 1019.2 2.0
18/01:30am NW 8 11 - - - - - - - 13.7 1019.4 1.6
18/01:00am NW 7 10 - - - - - - - 14.7 1019.9 0.2
18/12:30am E 9 11 - - - - - - - 14.9 1020.1 0.2
18/12:00am ESE 9 11 - - - - - - - 14.9 1020.6 0.2
 
Date/Time
EDT
Wind Sea
Height
m
Swell Vis
km
Cloud Weather Temp
°C
Press
hPa
Rain since
9am
mm
Dir  Spd
kts
Gust
kts
Height
m
Period
s
Dir
17/11:30pm ESE 8 11 - - - - - - - 15.2 1020.9 0.2
17/11:00pm E 10 12 - - - - - - - 14.9 1020.9 0.2
17/10:30pm ESE 10 13 - - - - - - - 15.2 1021.0 0.2
17/10:00pm ESE 11 14 - - - - - - - 15.1 1021.0 0.2
17/09:30pm ESE 12 14 - - - - - - - 15.1 1020.7 0.2
17/09:00pm ESE 13 15 - - - - - - - 15.1 1020.5 0.2
17/08:30pm ESE 14 17 - - - - - - - 15.3 1020.2 0.2
17/08:00pm SE 14 17 - - - - - - - 15.3 1019.8 0.2
17/07:30pm SE 15 18 - - - - - - - 15.5 1019.4 0.2
17/07:00pm SE 17 21 - - - - - - - 15.4 1018.8 0.2
17/06:30pm SE 18 21 - - - - - - - 15.8 1018.1 0.2
17/06:00pm SE 20 23 - - - - - - - 15.6 1017.8 0.2
17/05:30pm SE 18 23 - - - - - - - 16.1 1017.8 0.2
17/05:00pm SE 16 21 - - - - - - - 16.2 1017.8 0.2
17/04:30pm SE 17 20 - - - - - - - 16.5 1017.1 0.2
17/04:00pm SE 17 20 - - - - - - - 16.9 1017.0 0.2
17/03:30pm SE 18 21 - - - - - - - 16.8 1016.8 0.2
17/03:00pm SE 17 20 - - - - - - - 17.5 1016.9 0.2
17/02:30pm ESE 17 20 - - - - - - - 17.2 1016.6 0.2
17/02:00pm SE 16 20 - - - - - - - 17.6 1017.0 0.2
17/01:30pm SE 14 16 - - - - - - - 18.1 1017.0 0.2
17/01:00pm SE 12 14 - - - - - - - 17.4 1017.4 0.2
17/12:30pm SE 13 16 - - - - - - - 17.1 1017.2 0.2
17/12:00pm SE 11 15 - - - - - - - 17.7 1017.1 0.2
17/11:30am S 11 13 - - - - - - - 16.7 1017.5 0.2
17/11:00am S 10 13 - - - - - - - 16.6 1017.5 0.2
17/10:30am S 10 13 - - - - - - - 16.3 1017.7 0.0
17/10:00am SSW 11 14 - - - - - - - 15.7 1017.8 0.0
17/09:30am SW 13 18 - - - - - - - 14.1 1017.8 0.0
17/09:00am SSW 15 19 - - - - - - - 13.7 1018.0 4.4
17/08:30am S 17 21 - - - - - - - 13.5 1017.7 4.4
17/08:00am S 11 16 - - - - - - - 13.8 1017.6 4.4
17/07:30am S 9 12 - - - - - - - 14.5 1017.4 0.2
17/07:00am SE 13 16 - - - - - - - 14.4 1016.7 0.2
17/06:30am ESE 12 14 - - - - - - - 14.3 1016.4 0.2
17/06:00am ESE 9 11 - - - - - - - 14.4 1016.2 0.2
17/05:30am ESE 10 12 - - - - - - - 14.1 1016.0 0.2
17/05:00am ESE 8 11 - - - - - - - 14.0 1016.2 0.2
17/04:30am SE 13 15 - - - - - - - 13.7 1016.2 0.2
17/04:00am SE 11 14 - - - - - - - 14.2 1016.7 0.0
17/03:30am ESE 12 17 - - - - - - - 14.4 1016.1 0.0
17/03:00am ESE 13 15 - - - - - - - 14.2 1016.5 0.0
17/02:30am ESE 13 15 - - - - - - - 14.2 1016.6 0.0
17/02:00am ENE 8 13 - - - - - - - 15.7 1017.2 0.0
17/01:30am ENE 7 9 - - - - - - - 15.4 1017.2 0.0
17/01:00am E 5 7 - - - - - - - 15.3 1017.4 0.0
17/12:30am ENE 5 8 - - - - - - - 15.2 1017.7 0.0
17/12:00am NNE 6 11 - - - - - - - 15.3 1017.7 0.0
 
Date/Time
EDT
Wind Sea
Height
m
Swell Vis
km
Cloud Weather Temp
°C
Press
hPa
Rain since
9am
mm
Dir  Spd
kts
Gust
kts
Height
m
Period
s
Dir
16/11:30pm ENE 9 12 - - - - - - - 15.4 1017.1 0.0
16/11:00pm NE 9 12 - - - - - - - 15.4 1017.4 0.0
16/10:30pm NE 9 14 - - - - - - - 15.2 1017.0 0.0
16/10:00pm ENE 9 13 - - - - - - - 15.1 1017.0 0.0
16/09:30pm E 5 7 - - - - - - - 15.0 1017.3 0.0
16/09:00pm E 9 14 - - - - - - - 15.0 1017.1 0.0
16/08:30pm E 8 11 - - - - - - - 14.8 1017.2 0.0
16/08:00pm E 7 11 - - - - - - - 15.4 1017.3 0.0
16/07:30pm ENE 7 12 - - - - - - - 15.6 1016.8 0.0
16/07:00pm E 9 11 - - - - - - - 15.7 1016.3 0.0
16/06:30pm E 10 12 - - - - - - - 15.8 1015.8 0.0
16/06:00pm E 10 12 - - - - - - - 15.9 1015.5 0.0
16/05:30pm E 10 12 - - - - - - - 16.3 1015.1 0.0
16/05:00pm ENE 10 14 - - - - - - - 16.5 1015.1 0.0
16/04:30pm ENE 10 13 - - - - - - - 16.5 1015.0 0.0
16/04:00pm E 11 14 - - - - - - - 16.8 1014.9 0.0
16/03:30pm E 11 14 - - - - - - - 16.6 1015.0 0.0
16/03:00pm E 12 14 - - - - - - - 16.6 1014.9 0.0
16/02:30pm E 10 13 - - - - - - - 16.9 1015.2 0.0
16/02:00pm ENE 9 12 - - - - - - - 17.6 1015.2 0.0
16/01:30pm ENE 10 13 - - - - - - - 18.1 1015.3 0.0
16/01:00pm E 9 12 - - - - - - - 16.9 1015.6 0.0
16/12:30pm ENE 6 10 - - - - - - - 17.5 1015.6 0.0
16/12:00pm E 7 9 - - - - - - - 17.4 1015.7 0.0
16/11:30am SE 8 10 - - - - - - - 17.1 1015.9 0.0
16/11:00am SSE 9 12 - - - - - - - 16.3 1016.0 0.0
16/10:30am SSE 8 11 - - - - - - - 17.6 1015.8 0.0
16/10:00am S 10 13 - - - - - - - 16.2 1015.8 0.0
16/09:30am S 12 15 - - - - - - - 16.3 1015.8 0.0
16/09:00am S 14 18 - - - - - - - 15.6 1015.6 0.0
16/08:30am S 14 17 - - - - - - - 15.5 1015.4 0.0
16/08:00am S 15 19 - - - - - - - 14.9 1015.3 0.0
16/07:30am S 15 19 - - - - - - - 14.9 1014.9 0.0
16/07:00am S 16 20 - - - - - - - 14.8 1014.7 0.0
16/06:30am S 16 20 - - - - - - - 14.8 1014.4 0.0
16/06:00am S 18 23 - - - - - - - 14.7 1013.8 0.0
16/05:30am S 19 22 - - - - - - - 14.7 1013.4 0.0
16/05:00am S 19 22 - - - - - - - 14.9 1013.1 0.0
16/04:30am S 18 22 - - - - - - - 14.8 1012.9 0.0
16/04:00am S 15 19 - - - - - - - 15.2 1012.6 0.0
16/03:30am S 15 19 - - - - - - - 15.1 1012.3 0.0
16/03:00am S 15 20 - - - - - - - 15.2 1012.5 0.0
16/02:30am S 15 18 - - - - - - - 15.2 1012.6 0.0
16/02:00am SSE 15 19 - - - - - - - 15.1 1012.7 0.0
16/01:30am SSE 16 19 - - - - - - - 15.1 1012.8 0.0
16/01:00am SSE 18 23 - - - - - - - 15.2 1012.8 0.0
16/12:30am SSE 19 23 - - - - - - - 15.5 1012.6 0.0
16/12:00am SSE 16 19 - - - - - - - 16.1 1012.7 0.0
 
Date/Time
EDT
Wind Sea
Height
m
Swell Vis
km
Cloud Weather Temp
°C
Press
hPa
Rain since
9am
mm
Dir  Spd
kts
Gust
kts
Height
m
Period
s
Dir
15/11:30pm SSE 14 17 - - - - - - - 16.4 1012.6 0.0
15/11:00pm SSE 13 16 - - - - - - - 16.4 1012.3 0.0
15/10:30pm SSE 16 19 - - - - - - - 16.5 1012.1 0.0
15/10:00pm SSE 16 18 - - - - - - - 16.7 1011.9 0.0
15/09:30pm SSE 15 17 - - - - - - - 17.0 1011.5 0.0
15/09:00pm SSE 15 18 - - - - - - - 17.0 1011.1 0.0
15/08:30pm SSE 15 17 - - - - - - - 17.0 1010.5 0.0
15/08:00pm SSE 18 21 - - - - - - - 16.9 1009.7 0.0
15/07:30pm SSE 19 22 - - - - - - - 16.8 1009.3 0.0
15/07:00pm SSE 21 25 - - - - - - - 17.0 1008.7 0.0
15/06:30pm SSE 20 25 - - - - - - - 17.0 1008.0 0.0
15/06:00pm S 20 25 - - - - - - - 17.3 1007.4 0.0
15/05:30pm S 20 26 - - - - - - - 17.5 1007.0 0.0

Other formats

Comma delimited format used in spreadsheet applications
http://www.bom.gov.au/fwo/IDN60701/IDN60701.94939.axf

JavaScript Object Notation format (JSON) in row-major order
http://www.bom.gov.au/fwo/IDN60701/IDN60701.94939.json

Data quality

Most of these data are generated automatically and are frequently updated. Quality checks on data are not normally performed. It is possible for incorrect values to appear. Refer to information at About Latest Weather Observations and please check the disclaimer before using these data.